^^
Saratoga-Weather Station Historical Data
Daily Summary for September 28, 2021 Units:  Both    English   Metric
Daily Weekly Monthly Yearly Custom
  High: Low: Average:
Temperature: 61 °F /  16.1 °C 54.1 °F /  12.3 °C 56.8 °F /  13.8 °C
Dew Point: 56.5 °F /  13.6 °C 50.9 °F /  10.5 °C 52.9 °F /  11.6 °C
Humidity: 89% 81% 87%
Wind Speed: 8.9mph /  14.3km/h - 2.8mph /  4.5km/h
Wind Gust: 9mph /  14.5km/h - -
Wind- - West
Pressure: 30.1 in /  1018.0 hPa 30 in /  1017.3 hPa -
Precipitation: 0.01 in /  0.2 mm    
Historical Graphs
 
 
Tabular Data for September 28, 2021
Time Temperature Dew Point Pressure Wind Wind Speed Wind Gust Humidity Rainfall Rate (Hourly) solar
00:00 59 °F /  15 °C 53.2 °F /  11.8 °C 30.1in /  1017.6hPa WNW 4mph /  6.4km/h 6mph /  9.7km/h 81% 0in /  0.0mm 0 W/m2
00:05 58.6 °F /  14.8 °C 52.9 °F /  11.6 °C 30.1in /  1017.6hPa West 6mph /  9.7km/h 6mph /  9.7km/h 81% 0in /  0.0mm 0 W/m2
00:10 58.6 °F /  14.8 °C 53.2 °F /  11.8 °C 30.1in /  1017.6hPa WNW 2mph /  3.2km/h 6mph /  9.7km/h 82% 0in /  0.0mm 0 W/m2
00:15 58.5 °F /  14.7 °C 53.1 °F /  11.7 °C 30.1in /  1017.6hPa West 4mph /  6.4km/h 4mph /  6.4km/h 82% 0in /  0.0mm 0 W/m2
00:20 58.3 °F /  14.6 °C 52.9 °F /  11.6 °C 30.1in /  1017.6hPa NW 0.9mph /  1.4km/h 3mph /  4.8km/h 82% 0in /  0.0mm 0 W/m2
00:25 58.1 °F /  14.5 °C 52.7 °F /  11.5 °C 30.1in /  1017.6hPa WNW 4mph /  6.4km/h 4mph /  6.4km/h 82% 0in /  0.0mm 0 W/m2
00:30 57.9 °F /  14.4 °C 52.7 °F /  11.5 °C 30.1in /  1017.6hPa WNW 2.9mph /  4.7km/h 4mph /  6.4km/h 83% 0in /  0.0mm 0 W/m2
00:35 57.7 °F /  14.3 °C 52.7 °F /  11.5 °C 30.1in /  1017.6hPa West 0.9mph /  1.4km/h 2mph /  3.2km/h 83% 0in /  0.0mm 0 W/m2
00:40 57.6 °F /  14.2 °C 52.7 °F /  11.5 °C 30.1in /  1017.6hPa WNW 0.9mph /  1.4km/h 2mph /  3.2km/h 84% 0in /  0.0mm 0 W/m2
00:45 57.4 °F /  14.1 °C 52.5 °F /  11.4 °C 30.1in /  1017.6hPa West 0.9mph /  1.4km/h 2mph /  3.2km/h 84% 0in /  0.0mm 0 W/m2
00:50 57 °F /  13.9 °C 52.5 °F /  11.4 °C 30.1in /  1017.6hPa WNW 0.9mph /  1.4km/h 3mph /  4.8km/h 85% 0in /  0.0mm 0 W/m2
00:55 56.8 °F /  13.8 °C 52.3 °F /  11.3 °C 30.1in /  1017.6hPa WNW 2mph /  3.2km/h 6mph /  9.7km/h 85% 0in /  0.0mm 0 W/m2
01:01 56.7 °F /  13.7 °C 52.2 °F /  11.2 °C 30.1in /  1017.6hPa West 2.9mph /  4.7km/h 3mph /  4.8km/h 85% 0in /  0.0mm 0 W/m2
01:06 56.7 °F /  13.7 °C 52.5 °F /  11.4 °C 30.1in /  1017.6hPa West 2mph /  3.2km/h 4mph /  6.4km/h 86% 0in /  0.0mm 0 W/m2
01:11 56.7 °F /  13.7 °C 52.5 °F /  11.4 °C 30.1in /  1017.6hPa West 2mph /  3.2km/h 3mph /  4.8km/h 86% 0in /  0.0mm 0 W/m2
01:16 56.7 °F /  13.7 °C 52.5 °F /  11.4 °C 30.1in /  1017.6hPa West 2.9mph /  4.7km/h 4mph /  6.4km/h 86% 0in /  0.0mm 0 W/m2
01:21 56.7 °F /  13.7 °C 52.5 °F /  11.4 °C 30.1in /  1017.6hPa WNW 0.9mph /  1.4km/h 6mph /  9.7km/h 86% 0in /  0.0mm 0 W/m2
01:26 56.7 °F /  13.7 °C 52.5 °F /  11.4 °C 30.1in /  1017.6hPa West 8.1mph /  13km/h 8mph /  12.9km/h 86% 0in /  0.0mm 0 W/m2
01:31 56.8 °F /  13.8 °C 52.3 °F /  11.3 °C 30.1in /  1017.6hPa WNW 2.9mph /  4.7km/h 5mph /  8km/h 85% 0in /  0.0mm 0 W/m2
01:36 56.8 °F /  13.8 °C 52.3 °F /  11.3 °C 30.1in /  1017.6hPa West 2.9mph /  4.7km/h 6mph /  9.7km/h 85% 0in /  0.0mm 0 W/m2
01:41 56.8 °F /  13.8 °C 52.3 °F /  11.3 °C 30.1in /  1017.6hPa West 2.9mph /  4.7km/h 8mph /  12.9km/h 85% 0in /  0.0mm 0 W/m2
01:46 56.8 °F /  13.8 °C 52.3 °F /  11.3 °C 30.1in /  1017.6hPa West 2mph /  3.2km/h 8mph /  12.9km/h 85% 0in /  0.0mm 0 W/m2
01:51 56.8 °F /  13.8 °C 52.3 °F /  11.3 °C 30.1in /  1017.6hPa WNW 2mph /  3.2km/h 8mph /  12.9km/h 85% 0in /  0.0mm 0 W/m2
01:56 56.8 °F /  13.8 °C 52.3 °F /  11.3 °C 30.1in /  1018.0hPa WNW 2mph /  3.2km/h 3mph /  4.8km/h 85% 0in /  0.0mm 0 W/m2
02:01 56.7 °F /  13.7 °C 52.2 °F /  11.2 °C 30.1in /  1018.0hPa West 2mph /  3.2km/h 8mph /  12.9km/h 85% 0in /  0.0mm 0 W/m2
02:06 56.5 °F /  13.6 °C 52 °F /  11.1 °C 30.1in /  1018.0hPa WNW 0.9mph /  1.4km/h 6mph /  9.7km/h 85% 0in /  0.0mm 0 W/m2
02:11 56.3 °F /  13.5 °C 52.2 °F /  11.2 °C 30.1in /  1018.0hPa Calm   4mph /  6.4km/h 86% 0in /  0.0mm 0 W/m2
02:16 56.3 °F /  13.5 °C 52.2 °F /  11.2 °C 30.1in /  1018.0hPa WNW 2mph /  3.2km/h 7mph /  11.3km/h 86% 0in /  0.0mm 0 W/m2
02:21 56.3 °F /  13.5 °C 52.2 °F /  11.2 °C 30.1in /  1018.0hPa West 2mph /  3.2km/h 4mph /  6.4km/h 86% 0in /  0.0mm 0 W/m2
02:26 56.3 °F /  13.5 °C 52.2 °F /  11.2 °C 30.1in /  1017.6hPa WNW 2mph /  3.2km/h 7mph /  11.3km/h 86% 0in /  0.0mm 0 W/m2
02:31 56.3 °F /  13.5 °C 52.2 °F /  11.2 °C 30.1in /  1017.6hPa WNW 2.9mph /  4.7km/h 4mph /  6.4km/h 86% 0in /  0.0mm 0 W/m2
02:36 56.1 °F /  13.4 °C 52 °F /  11.1 °C 30.1in /  1017.6hPa NW 2.9mph /  4.7km/h 8mph /  12.9km/h 86% 0in /  0.0mm 0 W/m2
02:41 56.1 °F /  13.4 °C 52 °F /  11.1 °C 30.1in /  1017.6hPa West 2mph /  3.2km/h 4mph /  6.4km/h 86% 0in /  0.0mm 0 W/m2
02:46 56.1 °F /  13.4 °C 52 °F /  11.1 °C 30.1in /  1017.6hPa West 2.9mph /  4.7km/h 7mph /  11.3km/h 86% 0in /  0.0mm 0 W/m2
02:51 55.9 °F /  13.3 °C 51.8 °F /  11 °C 30.1in /  1017.6hPa WNW 2mph /  3.2km/h 4mph /  6.4km/h 86% 0in /  0.0mm 0 W/m2
02:56 55.9 °F /  13.3 °C 51.8 °F /  11 °C 30.1in /  1017.6hPa WNW 4mph /  6.4km/h 6mph /  9.7km/h 86% 0in /  0.0mm 0 W/m2
03:01 55.9 °F /  13.3 °C 51.8 °F /  11 °C 30.1in /  1017.6hPa WNW 4mph /  6.4km/h 6mph /  9.7km/h 86% 0in /  0.0mm 0 W/m2
03:06 55.9 °F /  13.3 °C 51.8 °F /  11 °C 30.1in /  1017.6hPa West 6mph /  9.7km/h 7mph /  11.3km/h 86% 0in /  0.0mm 0 W/m2
03:11 55.9 °F /  13.3 °C 51.8 °F /  11 °C 30in /  1017.3hPa West 2.9mph /  4.7km/h 7mph /  11.3km/h 86% 0in /  0.0mm 0 W/m2
03:16 55.8 °F /  13.2 °C 52 °F /  11.1 °C 30in /  1017.3hPa West 2.9mph /  4.7km/h 4mph /  6.4km/h 87% 0in /  0.0mm 0 W/m2
03:21 55.8 °F /  13.2 °C 52 °F /  11.1 °C 30in /  1017.3hPa SW 4.9mph /  7.9km/h 9mph /  14.5km/h 87% 0in /  0.0mm 0 W/m2
03:26 55.8 °F /  13.2 °C 52 °F /  11.1 °C 30in /  1017.3hPa West 2.9mph /  4.7km/h 6mph /  9.7km/h 87% 0in /  0.0mm 0 W/m2
03:31 55.8 °F /  13.2 °C 52 °F /  11.1 °C 30in /  1017.3hPa WSW 6.9mph /  11.1km/h 9mph /  14.5km/h 87% 0in /  0.0mm 0 W/m2
03:36 55.6 °F /  13.1 °C 51.8 °F /  11 °C 30in /  1017.3hPa WNW 2.9mph /  4.7km/h 6mph /  9.7km/h 87% 0in /  0.0mm 0 W/m2
03:41 55.6 °F /  13.1 °C 51.8 °F /  11 °C 30in /  1017.3hPa WNW 2mph /  3.2km/h 6mph /  9.7km/h 87% 0in /  0.0mm 0 W/m2
03:46 55.4 °F /  13 °C 51.6 °F /  10.9 °C 30in /  1017.3hPa West 2.9mph /  4.7km/h 4mph /  6.4km/h 87% 0in /  0.0mm 0 W/m2
03:51 55.2 °F /  12.9 °C 51.4 °F /  10.8 °C 30in /  1017.3hPa WNW 2.9mph /  4.7km/h 4mph /  6.4km/h 87% 0in /  0.0mm 0 W/m2
03:56 55 °F /  12.8 °C 51.6 °F /  10.9 °C 30in /  1017.3hPa West 2.9mph /  4.7km/h 6mph /  9.7km/h 88% 0in /  0.0mm 0 W/m2
04:01 55 °F /  12.8 °C 51.6 °F /  10.9 °C 30in /  1017.3hPa West 2.9mph /  4.7km/h 5mph /  8km/h 88% 0in /  0.0mm 0 W/m2
04:06 54.9 °F /  12.7 °C 51.4 °F /  10.8 °C 30in /  1017.3hPa WSW 2.9mph /  4.7km/h 4mph /  6.4km/h 88% 0in /  0.0mm 0 W/m2
04:11 54.7 °F /  12.6 °C 51.3 °F /  10.7 °C 30in /  1017.3hPa WSW 4mph /  6.4km/h 5mph /  8km/h 88% 0in /  0.0mm 0 W/m2
04:16 54.7 °F /  12.6 °C 51.4 °F /  10.8 °C 30in /  1017.3hPa WSW 2.9mph /  4.7km/h 3mph /  4.8km/h 89% 0in /  0.0mm 0 W/m2
04:21 54.5 °F /  12.5 °C 51.3 °F /  10.7 °C 30.1in /  1017.6hPa West 2mph /  3.2km/h 4mph /  6.4km/h 89% 0in /  0.0mm 0 W/m2
04:26 54.3 °F /  12.4 °C 51.1 °F /  10.6 °C 30in /  1017.3hPa West 2.9mph /  4.7km/h 6mph /  9.7km/h 89% 0in /  0.0mm 0 W/m2
04:31 54.3 °F /  12.4 °C 51.1 °F /  10.6 °C 30.1in /  1017.6hPa WSW 4mph /  6.4km/h 6mph /  9.7km/h 89% 0in /  0.0mm 0 W/m2
04:36 54.5 °F /  12.5 °C 51.3 °F /  10.7 °C 30.1in /  1017.6hPa WSW 4mph /  6.4km/h 6mph /  9.7km/h 89% 0in /  0.0mm 0 W/m2
04:41 54.5 °F /  12.5 °C 51.3 °F /  10.7 °C 30.1in /  1017.6hPa WNW 2.9mph /  4.7km/h 4mph /  6.4km/h 89% 0in /  0.0mm 0 W/m2
04:46 54.5 °F /  12.5 °C 51.3 °F /  10.7 °C 30.1in /  1017.6hPa West 4mph /  6.4km/h 7mph /  11.3km/h 89% 0in /  0.0mm 0 W/m2
04:51 54.7 °F /  12.6 °C 51.4 °F /  10.8 °C 30.1in /  1017.6hPa West 4mph /  6.4km/h 7mph /  11.3km/h 89% 0in /  0.0mm 0 W/m2
04:56 54.7 °F /  12.6 °C 51.4 °F /  10.8 °C 30.1in /  1017.6hPa West 2mph /  3.2km/h 6mph /  9.7km/h 89% 0in /  0.0mm 0 W/m2
05:01 54.7 °F /  12.6 °C 51.4 °F /  10.8 °C 30.1in /  1017.6hPa West 2mph /  3.2km/h 6mph /  9.7km/h 89% 0in /  0.0mm 0 W/m2
05:06 54.5 °F /  12.5 °C 51.3 °F /  10.7 °C 30.1in /  1017.6hPa WNW 2mph /  3.2km/h 4mph /  6.4km/h 89% 0in /  0.0mm 0 W/m2
05:11 54.5 °F /  12.5 °C 51.3 °F /  10.7 °C 30.1in /  1017.6hPa West 2mph /  3.2km/h 3mph /  4.8km/h 89% 0in /  0.0mm 0 W/m2
05:16 54.3 °F /  12.4 °C 51.1 °F /  10.6 °C 30in /  1017.3hPa West 2mph /  3.2km/h 3mph /  4.8km/h 89% 0in /  0.0mm 0 W/m2
05:21 54.3 °F /  12.4 °C 51.1 °F /  10.6 °C 30.1in /  1017.6hPa WSW 4.9mph /  7.9km/h 6mph /  9.7km/h 89% 0in /  0.0mm 0 W/m2
05:26 54.3 °F /  12.4 °C 51.1 °F /  10.6 °C 30in /  1017.3hPa WSW 4.9mph /  7.9km/h 8mph /  12.9km/h 89% 0in /  0.0mm 0 W/m2
05:31 54.3 °F /  12.4 °C 51.1 °F /  10.6 °C 30in /  1017.3hPa WNW 4mph /  6.4km/h 6mph /  9.7km/h 89% 0in /  0.0mm 0 W/m2
05:36 54.1 °F /  12.3 °C 50.9 °F /  10.5 °C 30.1in /  1017.6hPa West 2mph /  3.2km/h 6mph /  9.7km/h 89% 0in /  0.0mm 0 W/m2
05:41 54.1 °F /  12.3 °C 50.9 °F /  10.5 °C 30.1in /  1017.6hPa WSW 4mph /  6.4km/h 4mph /  6.4km/h 89% 0in /  0.0mm 0 W/m2
05:46 54.1 °F /  12.3 °C 50.9 °F /  10.5 °C 30.1in /  1017.6hPa West 2mph /  3.2km/h 4mph /  6.4km/h 89% 0in /  0.0mm 0 W/m2
05:51 54.1 °F /  12.3 °C 50.9 °F /  10.5 °C 30.1in /  1017.6hPa West 2mph /  3.2km/h 4mph /  6.4km/h 89% 0in /  0.0mm 0 W/m2
05:56 54.1 °F /  12.3 °C 50.9 °F /  10.5 °C 30.1in /  1017.6hPa West 2.9mph /  4.7km/h 7mph /  11.3km/h 89% 0in /  0.0mm 0 W/m2
06:01 54.3 °F /  12.4 °C 51.1 °F /  10.6 °C 30.1in /  1017.6hPa WSW 8.9mph /  14.3km/h 9mph /  14.5km/h 89% 0in /  0.0mm 0 W/m2
06:06 54.5 °F /  12.5 °C 51.3 °F /  10.7 °C 30.1in /  1017.6hPa WNW 4mph /  6.4km/h 6mph /  9.7km/h 89% 0in /  0.0mm 0 W/m2
06:11 54.7 °F /  12.6 °C 51.4 °F /  10.8 °C 30.1in /  1017.6hPa WSW 6mph /  9.7km/h 9mph /  14.5km/h 89% 0in /  0.0mm 0 W/m2
06:16 54.9 °F /  12.7 °C 51.4 °F /  10.8 °C 30.1in /  1017.6hPa WSW 6mph /  9.7km/h 8mph /  12.9km/h 88% 0in /  0.0mm 0 W/m2
06:21 55 °F /  12.8 °C 51.6 °F /  10.9 °C 30.1in /  1017.6hPa West 4mph /  6.4km/h 6mph /  9.7km/h 88% 0in /  0.0mm 0 W/m2
06:26 55.2 °F /  12.9 °C 51.8 °F /  11 °C 30.1in /  1017.6hPa West 4mph /  6.4km/h 8mph /  12.9km/h 88% 0in /  0.0mm 0 W/m2
06:31 55.2 °F /  12.9 °C 51.8 °F /  11 °C 30.1in /  1017.6hPa WSW 2.9mph /  4.7km/h 7mph /  11.3km/h 88% 0in /  0.0mm 0 W/m2
06:36 55.2 °F /  12.9 °C 51.8 °F /  11 °C 30in /  1017.3hPa WSW 4mph /  6.4km/h 8mph /  12.9km/h 88% 0in /  0.0mm 0 W/m2
06:41 55.2 °F /  12.9 °C 51.8 °F /  11 °C 30in /  1017.3hPa West 2.9mph /  4.7km/h 8mph /  12.9km/h 88% 0in /  0.0mm 0 W/m2
06:46 55.4 °F /  13 °C 52 °F /  11.1 °C 30in /  1017.3hPa SW 2mph /  3.2km/h 5mph /  8km/h 88% 0in /  0.0mm 0 W/m2
06:51 55.4 °F /  13 °C 52 °F /  11.1 °C 30in /  1017.3hPa WSW 4.9mph /  7.9km/h 8mph /  12.9km/h 88% 0in /  0.0mm 0 W/m2
06:56 55.4 °F /  13 °C 51.6 °F /  10.9 °C 30in /  1017.3hPa WSW 4.9mph /  7.9km/h 5mph /  8km/h 87% 0in /  0.0mm 5 W/m2
07:01 55.6 °F /  13.1 °C 51.8 °F /  11 °C 30.1in /  1017.6hPa WSW 4.9mph /  7.9km/h 7mph /  11.3km/h 87% 0in /  0.0mm 5 W/m2
07:06 55.6 °F /  13.1 °C 51.8 °F /  11 °C 30in /  1017.3hPa WSW 4mph /  6.4km/h 8mph /  12.9km/h 87% 0in /  0.0mm 7 W/m2
07:11 55.4 °F /  13 °C 51.6 °F /  10.9 °C 30in /  1017.3hPa WSW 2.9mph /  4.7km/h 4mph /  6.4km/h 87% 0in /  0.0mm 9 W/m2
07:16 55.4 °F /  13 °C 51.6 °F /  10.9 °C 30in /  1017.3hPa West 2.9mph /  4.7km/h 8mph /  12.9km/h 87% 0in /  0.0mm 11 W/m2
07:21 55.4 °F /  13 °C 51.6 °F /  10.9 °C 30in /  1017.3hPa WSW 2.9mph /  4.7km/h 4mph /  6.4km/h 87% 0in /  0.0mm 12 W/m2
07:26 55.2 °F /  12.9 °C 51.4 °F /  10.8 °C 30in /  1017.3hPa West 2mph /  3.2km/h 7mph /  11.3km/h 87% 0in /  0.0mm 12 W/m2
07:31 55.2 °F /  12.9 °C 51.4 °F /  10.8 °C 30.1in /  1017.6hPa West 2mph /  3.2km/h 3mph /  4.8km/h 87% 0in /  0.0mm 14 W/m2
07:36 55.2 °F /  12.9 °C 51.8 °F /  11 °C 30.1in /  1017.6hPa WNW 0.9mph /  1.4km/h 6mph /  9.7km/h 88% 0in /  0.0mm 19 W/m2
07:41 55.2 °F /  12.9 °C 51.8 °F /  11 °C 30.1in /  1017.6hPa WNW 2.9mph /  4.7km/h 4mph /  6.4km/h 88% 0in /  0.0mm 23 W/m2
07:46 55.2 °F /  12.9 °C 51.8 °F /  11 °C 30.1in /  1017.6hPa WNW 2mph /  3.2km/h 4mph /  6.4km/h 88% 0in /  0.0mm 28 W/m2
07:52 55.2 °F /  12.9 °C 51.8 °F /  11 °C 30.1in /  1017.6hPa WNW 2mph /  3.2km/h 6mph /  9.7km/h 88% 0in /  0.0mm 32 W/m2
07:57 55.2 °F /  12.9 °C 51.8 °F /  11 °C 30.1in /  1017.6hPa West 2.9mph /  4.7km/h 4mph /  6.4km/h 88% 0in /  0.0mm 32 W/m2
08:02 55.2 °F /  12.9 °C 51.8 °F /  11 °C 30.1in /  1017.6hPa West 0.9mph /  1.4km/h 3mph /  4.8km/h 88% 0in /  0.0mm 33 W/m2
08:07 55.2 °F /  12.9 °C 51.8 °F /  11 °C 30.1in /  1017.6hPa WNW 2mph /  3.2km/h 5mph /  8km/h 88% 0in /  0.0mm 40 W/m2
08:12 55.4 °F /  13 °C 52 °F /  11.1 °C 30.1in /  1017.6hPa West 0.9mph /  1.4km/h 3mph /  4.8km/h 88% 0in /  0.0mm 33 W/m2
08:17 55.4 °F /  13 °C 52 °F /  11.1 °C 30.1in /  1017.6hPa WSW 0.9mph /  1.4km/h 5mph /  8km/h 88% 0in /  0.0mm 33 W/m2
08:22 55.6 °F /  13.1 °C 52.2 °F /  11.2 °C 30.1in /  1018.0hPa West 0.9mph /  1.4km/h 3mph /  4.8km/h 88% 0in /  0.0mm 37 W/m2
08:27 55.6 °F /  13.1 °C 52.3 °F /  11.3 °C 30.1in /  1018.0hPa West 2mph /  3.2km/h 4mph /  6.4km/h 89% 0in /  0.0mm 88 W/m2
08:32 55.6 °F /  13.1 °C 52.3 °F /  11.3 °C 30.1in /  1018.0hPa West 0.9mph /  1.4km/h 2mph /  3.2km/h 89% 0in /  0.0mm 40 W/m2
08:37 55.8 °F /  13.2 °C 52.5 °F /  11.4 °C 30.1in /  1017.6hPa West 0.9mph /  1.4km/h 4mph /  6.4km/h 89% 0in /  0.0mm 44 W/m2
08:42 55.8 °F /  13.2 °C 52.5 °F /  11.4 °C 30.1in /  1017.6hPa Calm   1mph /  1.6km/h 89% 0in /  0.0mm 49 W/m2
08:47 55.8 °F /  13.2 °C 52.5 °F /  11.4 °C 30.1in /  1017.6hPa West 0.9mph /  1.4km/h 2mph /  3.2km/h 89% 0in /  0.0mm 100 W/m2
08:52 55.9 °F /  13.3 °C 52.7 °F /  11.5 °C 30.1in /  1017.6hPa WSW 2mph /  3.2km/h 3mph /  4.8km/h 89% 0in /  0.0mm 109 W/m2
08:57 56.3 °F /  13.5 °C 53.1 °F /  11.7 °C 30.1in /  1017.6hPa WNW 4mph /  6.4km/h 6mph /  9.7km/h 89% 0in /  0.0mm 104 W/m2
09:02 56.7 °F /  13.7 °C 53.1 °F /  11.7 °C 30.1in /  1018.0hPa NW 0.9mph /  1.4km/h 4mph /  6.4km/h 88% 0in /  0.0mm 142 W/m2
09:07 56.8 °F /  13.8 °C 53.1 °F /  11.7 °C 30.1in /  1018.0hPa West 2mph /  3.2km/h 6mph /  9.7km/h 87% 0in /  0.0mm 148 W/m2
09:12 57 °F /  13.9 °C 53.2 °F /  11.8 °C 30.1in /  1017.6hPa WNW 2mph /  3.2km/h 4mph /  6.4km/h 87% 0in /  0.0mm 153 W/m2
09:17 57.6 °F /  14.2 °C 53.8 °F /  12.1 °C 30.1in /  1017.6hPa WSW 2mph /  3.2km/h 4mph /  6.4km/h 87% 0in /  0.0mm 181 W/m2
09:22 57.7 °F /  14.3 °C 53.6 °F /  12 °C 30.1in /  1017.6hPa WNW 2.9mph /  4.7km/h 4mph /  6.4km/h 86% 0in /  0.0mm 202 W/m2
09:27 58.1 °F /  14.5 °C 54 °F /  12.2 °C 30.1in /  1017.6hPa NW 2.9mph /  4.7km/h 5mph /  8km/h 86% 0in /  0.0mm 218 W/m2
09:32 58.5 °F /  14.7 °C 54 °F /  12.2 °C 30.1in /  1017.6hPa WNW 2mph /  3.2km/h 7mph /  11.3km/h 85% 0in /  0.0mm 214 W/m2
09:37 58.6 °F /  14.8 °C 54.1 °F /  12.3 °C 30.1in /  1017.6hPa NW 2mph /  3.2km/h 5mph /  8km/h 85% 0in /  0.0mm 142 W/m2
09:42 58.8 °F /  14.9 °C 54 °F /  12.2 °C 30.1in /  1017.6hPa NW 4mph /  6.4km/h 8mph /  12.9km/h 84% 0in /  0.0mm 234 W/m2
09:47 59.2 °F /  15.1 °C 54.3 °F /  12.4 °C 30.1in /  1017.6hPa WNW 4.9mph /  7.9km/h 7mph /  11.3km/h 84% 0in /  0.0mm 260 W/m2
09:52 59.4 °F /  15.2 °C 54.5 °F /  12.5 °C 30.1in /  1017.6hPa West 2.9mph /  4.7km/h 8mph /  12.9km/h 84% 0in /  0.0mm 211 W/m2
09:57 59.5 °F /  15.3 °C 54.7 °F /  12.6 °C 30.1in /  1017.6hPa West 2mph /  3.2km/h 6mph /  9.7km/h 84% 0in /  0.0mm 167 W/m2
10:02 59.5 °F /  15.3 °C 54.3 °F /  12.4 °C 30.1in /  1017.6hPa NW 0.9mph /  1.4km/h 3mph /  4.8km/h 83% 0in /  0.0mm 139 W/m2
10:07 59.7 °F /  15.4 °C 54.5 °F /  12.5 °C 30.1in /  1017.6hPa West 2.9mph /  4.7km/h 8mph /  12.9km/h 83% 0in /  0.0mm 151 W/m2
10:12 59.7 °F /  15.4 °C 54.5 °F /  12.5 °C 30.1in /  1017.6hPa NW 0.9mph /  1.4km/h 2mph /  3.2km/h 83% 0in /  0.0mm 193 W/m2
10:17 60.1 °F /  15.6 °C 54.9 °F /  12.7 °C 30.1in /  1017.6hPa WNW 2mph /  3.2km/h 4mph /  6.4km/h 83% 0in /  0.0mm 200 W/m2
10:22 60.3 °F /  15.7 °C 54.7 °F /  12.6 °C 30.1in /  1017.6hPa WNW 2mph /  3.2km/h 3mph /  4.8km/h 82% 0in /  0.0mm 142 W/m2
10:27 60.4 °F /  15.8 °C 54.9 °F /  12.7 °C 30.1in /  1017.6hPa WNW 4mph /  6.4km/h 4mph /  6.4km/h 82% 0in /  0.0mm 123 W/m2
10:32 60.3 °F /  15.7 °C 55 °F /  12.8 °C 30.1in /  1017.6hPa West 6.9mph /  11.1km/h 9mph /  14.5km/h 83% 0in /  0.0mm 123 W/m2
10:37 59.5 °F /  15.3 °C 55 °F /  12.8 °C 30.1in /  1018.0hPa North 2.9mph /  4.7km/h 4mph /  6.4km/h 85% 0in /  0.0mm 125 W/m2
10:42 59.4 °F /  15.2 °C 55.2 °F /  12.9 °C 30.1in /  1018.0hPa West 2mph /  3.2km/h 9mph /  14.5km/h 86% 0in /  0.0mm 139 W/m2
10:47 59.2 °F /  15.1 °C 55.6 °F /  13.1 °C 30.1in /  1018.0hPa WNW 0.9mph /  1.4km/h 2mph /  3.2km/h 88% 0in /  0.0mm 137 W/m2
10:52 59.4 °F /  15.2 °C 56.1 °F /  13.4 °C 30.1in /  1018.0hPa WNW 2mph /  3.2km/h 4mph /  6.4km/h 89% 0in /  0.0mm 195 W/m2
10:57 59.4 °F /  15.2 °C 56.1 °F /  13.4 °C 30.1in /  1017.6hPa WNW 2mph /  3.2km/h 2mph /  3.2km/h 89% 0.01in /  0.2mm 258 W/m2
11:02 59.7 °F /  15.4 °C 56.5 °F /  13.6 °C 30.1in /  1018.0hPa WNW 2mph /  3.2km/h 4mph /  6.4km/h 89% 0.01in /  0.2mm 172 W/m2
11:07 60.1 °F /  15.6 °C 56.5 °F /  13.6 °C 30.1in /  1017.6hPa WNW 2mph /  3.2km/h 3mph /  4.8km/h 88% 0.01in /  0.2mm 223 W/m2
11:12 60.3 °F /  15.7 °C 56.3 °F /  13.5 °C 30.1in /  1018.0hPa WNW 4mph /  6.4km/h 6mph /  9.7km/h 87% 0.01in /  0.2mm 237 W/m2
11:17 60.4 °F /  15.8 °C 55.9 °F /  13.3 °C 30.1in /  1018.0hPa West 2mph /  3.2km/h 6mph /  9.7km/h 85% 0.01in /  0.2mm 121 W/m2
11:22 60.4 °F /  15.8 °C 56.3 °F /  13.5 °C 30.1in /  1017.6hPa West 4mph /  6.4km/h 5mph /  8km/h 86% 0.01in /  0.2mm 116 W/m2
11:27 60.4 °F /  15.8 °C 56.3 °F /  13.5 °C 30.1in /  1018.0hPa West 2mph /  3.2km/h 4mph /  6.4km/h 86% 0.01in /  0.2mm 102 W/m2
11:32 60.3 °F /  15.7 °C 56.1 °F /  13.4 °C 30.1in /  1018.0hPa WSW 2mph /  3.2km/h 9mph /  14.5km/h 86% 0.01in /  0.2mm 81 W/m2
11:37 60.1 °F /  15.6 °C 55.6 °F /  13.1 °C 30.1in /  1017.6hPa WSW 2.9mph /  4.7km/h 8mph /  12.9km/h 85% 0.01in /  0.2mm 54 W/m2
11:42 60.1 °F /  15.6 °C 55.9 °F /  13.3 °C 30.1in /  1017.6hPa WNW 2.9mph /  4.7km/h 9mph /  14.5km/h 86% 0.01in /  0.2mm 83 W/m2
11:47 60.1 °F /  15.6 °C 55.9 °F /  13.3 °C 30.1in /  1017.6hPa West 2mph /  3.2km/h 7mph /  11.3km/h 86% 0.01in /  0.2mm 135 W/m2
11:52 60.1 °F /  15.6 °C 56.1 °F /  13.4 °C 30.1in /  1017.6hPa WNW 0.9mph /  1.4km/h 4mph /  6.4km/h 87% 0.01in /  0.2mm 120 W/m2
11:57 60.3 °F /  15.7 °C 56.3 °F /  13.5 °C 30.1in /  1017.6hPa WNW 2.9mph /  4.7km/h 7mph /  11.3km/h 87% 0in /  0.0mm 162 W/m2
12:02 60.4 °F /  15.8 °C 56.3 °F /  13.5 °C 30.1in /  1017.6hPa WNW 2mph /  3.2km/h 4mph /  6.4km/h 86% 0in /  0.0mm 162 W/m2
12:07 60.6 °F /  15.9 °C 56.5 °F /  13.6 °C 30.1in /  1017.6hPa West 6mph /  9.7km/h 6mph /  9.7km/h 86% 0in /  0.0mm 130 W/m2
12:12 61 °F /  16.1 °C 56.5 °F /  13.6 °C 30.1in /  1017.6hPa West 6mph /  9.7km/h 6mph /  9.7km/h 85% 0in /  0.0mm 79 W/m2
12:17 61 °F /  16.1 °C 56.5 °F /  13.6 °C 30.1in /  1017.6hPa West 2.9mph /  4.7km/h 7mph /  11.3km/h 85% 0in /  0.0mm 56 W/m2
12:22 61 °F /  16.1 °C 56.1 °F /  13.4 °C 30.1in /  1017.6hPa WSW 2.9mph /  4.7km/h 8mph /  12.9km/h 84% 0in /  0.0mm 105 W/m2
12:27 61 °F /  16.1 °C 56.5 °F /  13.6 °C 30.1in /  1017.6hPa West 2.9mph /  4.7km/h 6mph /  9.7km/h 85% 0in /  0.0mm 109 W/m2
Juneau County Weather
Compliments of Weather Underground - 2 mb